createdAt,value
2023-04-23T08:20:31.693Z,2.03
2023-04-23T08:25:35.884Z,2.00
2023-04-23T08:30:40.122Z,2.25
2023-04-23T08:35:46.122Z,2.10
2023-04-23T08:40:50.477Z,2.55
2023-04-23T08:45:54.535Z,2.20
2023-04-23T08:51:00.431Z,2.33
2023-04-23T08:56:05.673Z,1.90
2023-04-23T09:01:09.754Z,2.10
2023-04-23T09:06:15.807Z,1.95
2023-04-23T09:11:19.992Z,1.65
2023-04-23T09:16:24.075Z,1.70
2023-04-23T09:21:30.934Z,1.85
2023-04-23T09:26:35.523Z,1.50
2023-04-23T09:31:39.578Z,1.55
2023-04-23T09:36:45.602Z,1.70
2023-04-23T09:41:49.716Z,1.80
2023-04-23T09:46:53.734Z,1.90
2023-04-23T09:51:59.796Z,1.70
2023-04-23T09:57:05.430Z,1.83
2023-04-23T10:02:10.227Z,1.48
2023-04-23T10:07:20.243Z,1.50
2023-04-23T10:17:31.888Z,1.30
2023-04-23T10:27:58.870Z,1.42
2023-04-23T10:33:03.055Z,1.38
2023-04-23T10:38:07.209Z,1.30
2023-04-23T10:43:13.178Z,1.58
2023-04-23T10:48:17.380Z,1.38
2023-04-23T10:53:21.903Z,1.40
2023-04-23T10:58:28.997Z,1.20
2023-04-23T11:03:34.436Z,1.50
2023-04-23T11:08:39.385Z,1.40
2023-04-23T11:13:46.922Z,1.40
2023-04-23T11:19:11.899Z,1.30
2023-04-23T11:24:16.519Z,1.30
2023-04-23T11:29:21.718Z,1.30
2023-04-23T11:34:27.779Z,1.10
2023-04-23T11:39:32.022Z,1.10
2023-04-23T11:44:36.556Z,1.55
2023-04-23T11:49:45.064Z,1.10
2023-04-23T11:54:49.692Z,1.33
2023-04-23T11:59:56.226Z,1.45
2023-04-23T12:05:09.721Z,1.48
2023-04-23T12:10:19.648Z,1.20
2023-04-23T12:15:23.994Z,1.20
2023-04-23T12:20:30.068Z,1.50
2023-04-23T12:25:34.871Z,1.30
2023-04-23T12:30:46.214Z,1.27
2023-04-23T12:35:54.335Z,1.30
2023-04-23T12:41:01.319Z,1.52
2023-04-23T12:46:05.646Z,1.23
2023-04-23T12:51:11.946Z,1.33
2023-04-23T12:56:16.329Z,1.70
2023-04-23T13:01:20.451Z,1.40
2023-04-23T13:06:28.731Z,1.13
2023-04-23T13:11:32.927Z,1.15
2023-04-23T13:16:37.117Z,1.20
2023-04-23T13:21:43.151Z,1.23
2023-04-23T13:26:47.546Z,1.10
2023-04-23T13:31:51.890Z,1.30
2023-04-23T13:36:57.946Z,1.20
2023-04-23T13:42:09.513Z,1.40
2023-04-23T13:47:14.289Z,1.20
2023-04-23T13:52:20.638Z,1.20
2023-04-23T13:57:25.955Z,1.27
2023-04-23T14:02:30.848Z,1.40
2023-04-23T14:07:37.408Z,1.10
2023-04-23T14:12:41.667Z,2.08
2023-04-23T14:17:47.014Z,1.40
2023-04-23T14:22:58.337Z,1.20
2023-04-23T14:28:05.187Z,1.42
2023-04-23T14:33:09.317Z,1.23
2023-04-23T14:38:15.713Z,1.40
2023-04-23T14:43:19.947Z,1.65
2023-04-23T14:48:24.010Z,1.75
2023-04-23T14:53:30.187Z,1.65
2023-04-23T14:58:34.196Z,2.08
2023-04-23T15:03:38.420Z,1.80
2023-04-23T15:08:44.882Z,2.00
2023-04-23T15:13:54.506Z,2.17
2023-04-23T15:18:58.911Z,2.20
2023-04-23T15:24:05.506Z,2.00
2023-04-23T15:29:09.617Z,2.65
2023-04-23T15:34:13.661Z,2.38
2023-04-23T15:39:19.690Z,2.30
2023-04-23T15:44:24.692Z,2.70
2023-04-23T15:49:28.766Z,2.63
2023-04-23T15:54:34.813Z,2.88
2023-04-23T15:59:39.204Z,2.50
2023-04-23T16:04:43.922Z,2.47
2023-04-23T16:09:50.816Z,3.00
2023-04-23T16:14:54.974Z,3.10
2023-04-23T16:19:59.044Z,1.90
2023-04-23T16:25:05.793Z,1.93
2023-04-23T16:30:11.910Z,1.67
2023-04-23T16:35:16.089Z,1.60
2023-04-23T16:40:22.355Z,1.47
2023-04-23T16:45:26.764Z,1.80
2023-04-23T16:50:30.888Z,1.90
2023-04-23T16:55:37.669Z,1.70
2023-04-23T17:00:41.684Z,1.60
2023-04-23T17:05:45.806Z,1.93
2023-04-23T17:10:51.950Z,2.27
2023-04-23T17:15:56.047Z,2.07
2023-04-23T17:21:00.206Z,2.07
2023-04-23T17:26:06.250Z,2.00
2023-04-23T17:31:10.773Z,1.53
2023-04-23T17:36:15.315Z,1.70
2023-04-23T17:41:22.306Z,1.60
2023-04-23T17:46:26.488Z,1.90
2023-04-23T17:51:30.944Z,1.57
2023-04-23T17:56:37.187Z,1.40
2023-04-23T18:01:41.239Z,1.40
2023-04-23T18:06:45.526Z,1.43
2023-04-23T18:11:51.805Z,1.50
2023-04-23T18:16:55.987Z,1.27
2023-04-23T18:22:01.724Z,1.43
2023-04-23T18:27:07.768Z,1.30
2023-04-23T18:32:15.861Z,1.20
2023-04-23T18:37:40.268Z,1.40
2023-04-23T18:42:46.296Z,1.50
2023-04-23T18:47:53.010Z,1.20
2023-04-23T18:52:57.162Z,1.60
2023-04-23T18:58:03.688Z,1.20
2023-04-23T19:03:23.462Z,1.90
2023-04-23T19:08:31.013Z,1.50
2023-04-23T19:13:36.974Z,1.30
2023-04-23T19:18:40.962Z,1.30
2023-04-23T19:23:45.081Z,1.20
2023-04-23T19:28:51.029Z,1.40
2023-04-23T19:33:55.049Z,1.50
2023-04-23T19:38:59.285Z,1.53
2023-04-23T19:44:05.358Z,1.30
2023-04-23T19:49:09.483Z,1.37
2023-04-23T19:54:13.481Z,1.30
2023-04-23T19:59:20.436Z,1.10
2023-04-23T20:04:24.591Z,1.20
2023-04-23T20:09:29.041Z,1.07
2023-04-23T20:14:35.297Z,1.40
2023-04-23T20:19:39.293Z,0.90
2023-04-23T20:24:45.879Z,0.93
2023-04-23T20:29:52.075Z,1.10
2023-04-23T20:34:57.451Z,1.00
2023-04-23T20:40:01.716Z,1.10
2023-04-23T20:45:12.618Z,0.90
2023-04-23T20:50:16.953Z,0.90
2023-04-23T20:55:21.520Z,0.90
2023-04-23T21:00:28.847Z,1.00
